Time;durP1;ratioP1;P1;durP2;ratioP2;P2;SDS_P1;SDS_P2;PMS_P1;PMS_P2;Temp;Humidity;BMP_temperature;BMP_pressure;BME280_temperature;BME280_humidity;BME280_pressure;Samples;Min_cycle;Max_cycle;Signal;HPM_P1;HPM_P2
2024/01/12 00:00:34;;;;;;;20.83;8.50;;;-5.40;99.90;;;;;;5011794;28;20902;-81
2024/01/12 00:03:01;;;;;;;10.97;6.80;;;-5.30;99.90;;;;;;5009453;28;20796;-84
2024/01/12 00:05:27;;;;;;;9.52;6.50;;;-5.30;99.90;;;;;;5009175;28;20889;-82
2024/01/12 00:07:52;;;;;;;10.40;6.10;;;-5.20;99.90;;;;;;5030699;28;20300;-81
2024/01/12 00:10:18;;;;;;;16.13;8.07;;;-5.30;99.90;;;;;;5014591;28;20237;-85
2024/01/12 00:12:43;;;;;;;8.33;4.00;;;-5.30;99.90;;;;;;5017205;28;20918;-84
2024/01/12 00:15:09;;;;;;;14.40;8.00;;;-5.30;99.90;;;;;;5011669;28;20220;-83
2024/01/12 00:17:35;;;;;;;11.43;5.27;;;-5.30;99.90;;;;;;5015135;28;20283;-83
2024/01/12 00:20:02;;;;;;;15.33;4.27;;;-5.30;99.90;;;;;;5017081;28;20206;-82
2024/01/12 00:22:27;;;;;;;16.27;4.63;;;-5.40;99.90;;;;;;5013063;28;20664;-80
2024/01/12 00:24:53;;;;;;;8.53;4.10;;;-5.50;99.90;;;;;;5016253;28;20196;-80
2024/01/12 00:27:19;;;;;;;13.93;4.87;;;-5.50;99.90;;;;;;5018053;28;20210;-81
2024/01/12 00:29:44;;;;;;;8.13;3.50;;;-5.50;99.90;;;;;;5022388;28;20213;-81
2024/01/12 00:32:11;;;;;;;14.27;5.70;;;-5.40;99.90;;;;;;5014101;28;20189;-80
2024/01/12 00:34:37;;;;;;;26.95;6.82;;;-5.50;99.90;;;;;;5012280;28;20196;-78
2024/01/12 00:37:03;;;;;;;6.50;5.90;;;-5.50;99.90;;;;;;5015935;28;20633;-79
2024/01/12 00:39:28;;;;;;;8.67;5.57;;;-5.50;99.90;;;;;;5004496;28;20210;-82
2024/01/12 00:41:54;;;;;;;10.23;5.43;;;-5.50;99.90;;;;;;5002102;28;20202;-81
2024/01/12 00:44:21;;;;;;;6.77;4.47;;;-5.50;99.90;;;;;;5006867;28;20181;-82
2024/01/12 00:46:50;;;;;;;7.93;4.40;;;-5.60;99.90;;;;;;5013655;28;20193;-80
2024/01/12 00:49:17;;;;;;;7.95;5.45;;;-5.50;99.90;;;;;;5007379;28;20327;-82
2024/01/12 00:51:43;;;;;;;11.75;5.30;;;-5.50;99.90;;;;;;5015484;28;20240;-81
2024/01/12 00:54:09;;;;;;;3.97;3.57;;;-5.60;99.90;;;;;;5006034;28;20213;-83
2024/01/12 00:56:34;;;;;;;6.03;3.73;;;-5.60;99.90;;;;;;5007654;28;20437;-81
2024/01/12 00:59:00;;;;;;;8.90;3.70;;;-5.60;99.90;;;;;;5008540;28;20211;-82
2024/01/12 01:01:25;;;;;;;13.50;5.50;;;-5.60;99.90;;;;;;5007568;28;20197;-81
2024/01/12 01:03:51;;;;;;;12.80;5.30;;;-5.60;99.90;;;;;;5004936;28;20252;-80
2024/01/12 01:06:16;;;;;;;7.73;5.03;;;-5.50;99.90;;;;;;5008439;28;20821;-83
2024/01/12 01:08:42;;;;;;;7.40;3.20;;;-5.70;99.90;;;;;;5015393;28;20232;-78
2024/01/12 01:11:07;;;;;;;10.50;4.13;;;-5.80;99.90;;;;;;5005587;28;20213;-85
2024/01/12 01:13:35;;;;;;;21.37;4.67;;;-5.90;99.90;;;;;;5011050;28;20273;-80
2024/01/12 01:16:02;;;;;;;5.72;3.10;;;-5.90;99.90;;;;;;5012918;28;22249;-80
2024/01/12 01:18:30;;;;;;;28.67;8.02;;;-5.80;99.90;;;;;;5008663;28;20190;-85
2024/01/12 01:20:57;;;;;;;5.60;4.07;;;-5.80;99.90;;;;;;5008826;28;20186;-80
2024/01/12 01:23:22;;;;;;;13.57;5.40;;;-5.90;99.90;;;;;;5007748;28;20939;-81
2024/01/12 01:25:48;;;;;;;12.57;6.70;;;-5.90;99.90;;;;;;5010756;28;20198;-82
2024/01/12 01:28:14;;;;;;;10.13;8.10;;;-5.80;99.90;;;;;;5009854;28;20189;-79
2024/01/12 01:30:39;;;;;;;17.07;6.10;;;-5.80;99.90;;;;;;5028794;28;20842;-77
2024/01/12 01:33:05;;;;;;;9.70;6.23;;;-5.80;99.90;;;;;;5029238;28;20240;-77
2024/01/12 01:35:30;;;;;;;4.50;2.93;;;-5.80;99.90;;;;;;5010823;28;20190;-80
2024/01/12 01:37:56;;;;;;;9.77;5.47;;;-5.70;99.90;;;;;;5018939;28;20255;-83
2024/01/12 01:40:22;;;;;;;5.20;3.77;;;-5.70;99.90;;;;;;5007258;28;20634;-82
2024/01/12 01:42:48;;;;;;;12.60;7.27;;;-5.70;99.90;;;;;;5017044;28;20198;-83
2024/01/12 01:45:14;;;;;;;8.73;4.78;;;-5.80;99.90;;;;;;5006985;28;20200;-82
2024/01/12 01:47:40;;;;;;;18.80;10.13;;;-5.80;99.90;;;;;;5008418;28;21237;-82
2024/01/12 01:50:07;;;;;;;11.52;5.63;;;-5.80;99.90;;;;;;5009133;28;20468;-82
2024/01/12 01:52:32;;;;;;;6.28;4.45;;;-5.70;99.90;;;;;;5009937;28;20670;-82
2024/01/12 01:54:58;;;;;;;21.90;8.00;;;-5.80;99.90;;;;;;5009614;28;20190;-78
2024/01/12 01:57:27;;;;;;;8.57;6.17;;;-5.90;99.90;;;;;;5012109;28;20197;-78
2024/01/12 01:59:54;;;;;;;8.45;3.35;;;-5.80;99.90;;;;;;5002249;28;20270;-81
2024/01/12 02:02:21;;;;;;;11.20;4.50;;;-5.80;99.90;;;;;;5012265;28;20185;-82
2024/01/12 02:04:50;;;;;;;12.85;5.60;;;-5.80;99.90;;;;;;5009583;28;20181;-83
2024/01/12 02:07:15;;;;;;;23.52;6.18;;;-5.80;99.90;;;;;;5014957;28;20190;-81
2024/01/12 02:09:41;;;;;;;12.23;7.97;;;-5.90;99.90;;;;;;5010570;28;20210;-83
2024/01/12 02:12:07;;;;;;;8.60;5.07;;;-5.90;99.90;;;;;;5013439;28;20205;-79
2024/01/12 02:14:33;;;;;;;12.23;5.00;;;-5.90;99.90;;;;;;5011221;28;20193;-81
2024/01/12 02:16:59;;;;;;;12.35;7.72;;;-5.80;99.90;;;;;;5014844;28;20182;-84
2024/01/12 02:19:25;;;;;;;22.57;7.40;;;-5.80;99.90;;;;;;5011895;28;20210;-78
2024/01/12 02:21:50;;;;;;;12.33;4.73;;;-5.80;99.90;;;;;;5021949;28;20185;-83
2024/01/12 02:24:15;;;;;;;13.03;4.43;;;-5.80;99.90;;;;;;5013523;28;20197;-83
2024/01/12 02:26:41;;;;;;;7.97;3.90;;;-5.90;99.90;;;;;;5010853;28;20767;-82
2024/01/12 02:29:07;;;;;;;18.10;8.50;;;-6.10;99.90;;;;;;5008549;28;20254;-81
2024/01/12 02:31:33;;;;;;;21.97;6.70;;;-6.20;99.90;;;;;;5015309;28;20205;-84
2024/01/12 02:33:58;;;;;;;10.18;7.20;;;-6.30;99.90;;;;;;5003450;28;20185;-83
2024/01/12 02:36:27;;;;;;;12.67;7.07;;;-6.30;99.90;;;;;;5007553;28;20507;-85
2024/01/12 02:38:53;;;;;;;19.90;7.40;;;-6.30;99.90;;;;;;5007321;28;20213;-78
2024/01/12 02:41:20;;;;;;;10.43;5.30;;;-6.20;99.90;;;;;;5007075;28;20186;-83
2024/01/12 02:43:45;;;;;;;7.07;5.07;;;-6.20;99.90;;;;;;5004028;28;20193;-81
2024/01/12 02:46:11;;;;;;;23.63;5.73;;;-6.10;99.90;;;;;;5009000;28;20193;-81
2024/01/12 02:48:36;;;;;;;12.20;6.23;;;-6.10;99.90;;;;;;5008726;28;20206;-82
2024/01/12 02:51:02;;;;;;;20.43;6.23;;;-6.00;99.90;;;;;;5008486;28;20220;-84
2024/01/12 02:53:27;;;;;;;12.87;7.20;;;-6.00;99.90;;;;;;5013403;28;20186;-79
2024/01/12 02:55:53;;;;;;;34.63;9.70;;;-6.00;99.90;;;;;;5014819;28;20762;-83
2024/01/12 02:58:19;;;;;;;11.97;7.03;;;-6.10;99.90;;;;;;4999361;28;20181;-84
2024/01/12 03:00:44;;;;;;;9.53;4.73;;;-6.10;99.90;;;;;;5002808;28;20865;-82
2024/01/12 03:03:10;;;;;;;12.03;6.67;;;-6.10;99.90;;;;;;5004746;28;20193;-81
2024/01/12 03:05:35;;;;;;;9.03;4.57;;;-6.10;99.90;;;;;;5005467;28;20200;-81
2024/01/12 03:08:01;;;;;;;11.57;7.07;;;-6.10;99.90;;;;;;5010463;28;20198;-80
2024/01/12 03:10:26;;;;;;;22.10;11.17;;;-6.10;99.90;;;;;;5006724;28;20236;-84
2024/01/12 03:12:52;;;;;;;21.43;6.03;;;-6.00;99.90;;;;;;5029676;28;20202;-82
2024/01/12 03:15:17;;;;;;;7.20;4.03;;;-5.80;99.90;;;;;;5011281;28;20216;-83
2024/01/12 03:17:43;;;;;;;5.10;4.33;;;-5.70;99.90;;;;;;5013651;28;20197;-81
2024/01/12 03:20:08;;;;;;;5.87;4.50;;;-5.70;99.90;;;;;;5014126;28;20258;-80
2024/01/12 03:22:35;;;;;;;11.93;4.17;;;-5.80;99.90;;;;;;5009619;28;20194;-82
2024/01/12 03:25:01;;;;;;;17.23;5.75;;;-5.90;99.90;;;;;;5011344;28;20193;-81
2024/01/12 03:27:32;;;;;;;4.37;3.03;;;-5.90;99.90;;;;;;5009399;28;20234;-77
2024/01/12 03:29:57;;;;;;;12.82;6.78;;;-5.90;99.90;;;;;;5008101;28;20232;-84
2024/01/12 03:32:23;;;;;;;7.90;5.50;;;-6.00;99.90;;;;;;5008972;28;20300;-77
2024/01/12 03:34:48;;;;;;;14.80;3.60;;;-6.00;99.90;;;;;;5008756;28;20186;-83
2024/01/12 03:37:14;;;;;;;20.00;5.93;;;-6.00;99.90;;;;;;5006572;28;20624;-80
2024/01/12 03:39:39;;;;;;;26.67;7.03;;;-6.10;99.90;;;;;;5006738;28;20617;-84
2024/01/12 03:42:05;;;;;;;15.13;7.67;;;-6.20;99.90;;;;;;5012436;28;20217;-80
2024/01/12 03:44:31;;;;;;;12.10;7.80;;;-6.30;99.90;;;;;;5013671;28;20197;-84
2024/01/12 03:46:56;;;;;;;17.60;5.67;;;-6.30;99.90;;;;;;5012119;28;20209;-82
2024/01/12 03:49:22;;;;;;;10.20;5.97;;;-6.30;99.90;;;;;;5008193;28;20213;-80
2024/01/12 03:51:53;;;;;;;17.33;7.67;;;-6.30;99.90;;;;;;5011916;28;20237;-79
2024/01/12 03:54:22;;;;;;;10.23;5.82;;;-6.40;99.90;;;;;;5015689;28;20842;-84
2024/01/12 03:56:48;;;;;;;7.72;4.18;;;-6.40;99.90;;;;;;5013232;28;20742;-83
2024/01/12 03:59:15;;;;;;;29.70;8.40;;;-6.40;99.90;;;;;;5015137;28;20232;-82
2024/01/12 04:01:44;;;;;;;6.33;5.77;;;-6.40;99.90;;;;;;5012138;28;20249;-79
2024/01/12 04:04:09;;;;;;;15.15;5.22;;;-6.40;99.90;;;;;;5024499;28;20756;-85
2024/01/12 04:06:35;;;;;;;26.57;7.30;;;-6.40;99.90;;;;;;5011288;28;20200;-84
2024/01/12 04:09:00;;;;;;;6.67;5.60;;;-6.40;99.90;;;;;;5014161;28;20297;-84
2024/01/12 04:11:26;;;;;;;5.57;4.43;;;-6.30;99.90;;;;;;5016722;28;20313;-80
2024/01/12 04:13:52;;;;;;;9.90;6.30;;;-6.30;99.90;;;;;;5016845;28;20515;-81
2024/01/12 04:16:18;;;;;;;7.47;6.67;;;-6.30;99.90;;;;;;5025105;28;20186;-80
2024/01/12 04:18:44;;;;;;;6.18;3.75;;;-6.20;99.90;;;;;;5017794;28;20210;-83
2024/01/12 04:21:09;;;;;;;9.20;3.97;;;-6.20;99.90;;;;;;5032056;28;20192;-82
2024/01/12 04:23:35;;;;;;;8.30;6.83;;;-6.20;99.90;;;;;;5012830;28;20293;-81
2024/01/12 04:26:00;;;;;;;10.63;5.53;;;-6.20;99.90;;;;;;5016341;28;20190;-83
2024/01/12 04:28:26;;;;;;;15.73;7.87;;;-6.20;99.90;;;;;;5020012;28;20187;-82
2024/01/12 04:30:51;;;;;;;6.60;4.67;;;-6.20;99.90;;;;;;5015606;28;20214;-83
2024/01/12 04:33:17;;;;;;;5.37;4.93;;;-6.30;99.90;;;;;;5018147;28;20220;-83
2024/01/12 04:35:42;;;;;;;6.97;5.30;;;-6.30;99.90;;;;;;5016773;28;20562;-81
2024/01/12 04:38:11;;;;;;;6.80;5.63;;;-6.30;99.90;;;;;;5018683;28;20185;-81
2024/01/12 04:40:36;;;;;;;5.32;4.82;;;-6.40;99.90;;;;;;5008671;28;20216;-81
2024/01/12 04:43:03;;;;;;;11.20;7.77;;;-6.40;99.90;;;;;;5012329;28;20190;-82
2024/01/12 04:45:29;;;;;;;11.88;7.00;;;-6.40;99.90;;;;;;5012830;28;20194;-81
2024/01/12 04:47:55;;;;;;;9.87;6.33;;;-6.40;99.90;;;;;;5015774;28;20200;-79
2024/01/12 04:50:21;;;;;;;5.60;4.75;;;-6.40;99.90;;;;;;5016263;28;20225;-86
2024/01/12 04:52:46;;;;;;;11.90;5.87;;;-6.40;99.90;;;;;;5015142;28;20190;-78
2024/01/12 04:55:12;;;;;;;9.17;3.37;;;-6.40;99.90;;;;;;5030883;28;20189;-80
2024/01/12 04:57:37;;;;;;;10.63;7.23;;;-6.40;99.90;;;;;;5024894;28;20591;-82
2024/01/12 05:00:05;;;;;;;4.83;4.33;;;-6.30;99.90;;;;;;5019550;28;20198;-78
2024/01/12 05:02:31;;;;;;;9.63;6.65;;;-6.30;99.90;;;;;;5009871;28;20221;-82
2024/01/12 05:04:57;;;;;;;13.73;6.00;;;-6.40;99.90;;;;;;5010559;28;20289;-84
2024/01/12 05:07:22;;;;;;;11.43;5.70;;;-6.40;99.90;;;;;;5013030;28;20240;-83
2024/01/12 05:09:48;;;;;;;11.67;8.83;;;-6.40;99.90;;;;;;5013585;28;20220;-83
2024/01/12 05:12:13;;;;;;;9.97;3.73;;;-6.40;99.90;;;;;;5013039;28;20291;-82
2024/01/12 05:14:39;;;;;;;11.00;5.77;;;-6.40;99.90;;;;;;5013758;28;20193;-81
2024/01/12 05:17:04;;;;;;;17.77;6.30;;;-6.60;99.90;;;;;;5009692;28;20877;-84
2024/01/12 05:19:30;;;;;;;8.33;6.40;;;-6.70;99.90;;;;;;5010629;28;20201;-81
2024/01/12 05:21:55;;;;;;;15.23;5.33;;;-6.70;99.90;;;;;;5014899;28;20193;-85
2024/01/12 05:24:21;;;;;;;19.10;9.90;;;-6.80;99.90;;;;;;5015465;28;20276;-83
2024/01/12 05:26:46;;;;;;;8.13;4.27;;;-6.80;99.90;;;;;;5016670;28;20255;-80
2024/01/12 05:29:14;;;;;;;10.23;4.50;;;-6.70;99.90;;;;;;5019360;28;20213;-80
2024/01/12 05:31:43;;;;;;;17.67;9.45;;;-6.70;99.90;;;;;;5016343;28;20237;-83
2024/01/12 05:34:09;;;;;;;17.50;7.30;;;-6.70;99.90;;;;;;5012527;28;20186;-79
2024/01/12 05:36:35;;;;;;;13.65;5.15;;;-6.90;99.90;;;;;;5018580;28;20182;-81
2024/01/12 05:39:00;;;;;;;10.40;5.23;;;-6.60;99.90;;;;;;5012516;28;20232;-81
2024/01/12 05:41:26;;;;;;;7.30;5.47;;;-6.60;99.90;;;;;;5012869;28;20444;-81
2024/01/12 05:43:51;;;;;;;15.67;8.60;;;-6.60;99.90;;;;;;5011656;28;20198;-80
2024/01/12 05:46:19;;;;;;;12.90;5.60;;;-6.60;99.90;;;;;;5014070;28;20188;-80
2024/01/12 05:48:45;;;;;;;12.93;9.10;;;-6.50;99.90;;;;;;5004975;28;20892;-85
2024/01/12 05:51:14;;;;;;;7.27;6.33;;;-6.50;99.90;;;;;;5020926;28;20217;-82
2024/01/12 05:53:40;;;;;;;23.02;7.18;;;-6.50;99.90;;;;;;5008844;28;20682;-82
2024/01/12 05:56:06;;;;;;;20.37;9.77;;;-6.50;99.90;;;;;;5012548;28;20186;-84
2024/01/12 05:58:32;;;;;;;4.72;4.38;;;-6.50;99.90;;;;;;5014727;28;20256;-84
2024/01/12 06:00:59;;;;;;;19.43;11.10;;;-6.60;99.90;;;;;;5011433;28;20310;-81
2024/01/12 06:03:28;;;;;;;19.92;10.13;;;-6.50;99.90;;;;;;5008690;28;21090;-79
2024/01/12 06:05:57;;;;;;;8.90;4.45;;;-6.50;99.90;;;;;;5009635;28;20194;-78
2024/01/12 06:08:23;;;;;;;6.13;5.25;;;-6.40;99.90;;;;;;5020254;28;20182;-80
2024/01/12 06:10:49;;;;;;;25.00;7.85;;;-6.40;99.90;;;;;;5014905;28;20209;-81
2024/01/12 06:13:15;;;;;;;8.63;7.00;;;-6.40;99.90;;;;;;5013393;28;20244;-82
2024/01/12 06:15:40;;;;;;;16.85;8.10;;;-6.40;99.90;;;;;;5012196;28;20443;-81
2024/01/12 06:18:06;;;;;;;18.80;6.30;;;-6.50;99.90;;;;;;5026266;28;20251;-83
2024/01/12 06:20:32;;;;;;;6.70;3.50;;;-6.70;99.90;;;;;;5015627;28;20220;-80
2024/01/12 06:22:57;;;;;;;9.10;7.50;;;-6.70;99.90;;;;;;5017809;28;20186;-80
2024/01/12 06:25:23;;;;;;;19.23;6.40;;;-6.90;99.90;;;;;;5015903;28;20196;-81
2024/01/12 06:27:49;;;;;;;17.03;6.30;;;-6.80;99.90;;;;;;5017465;28;20198;-81
2024/01/12 06:30:15;;;;;;;6.75;4.25;;;-6.80;99.90;;;;;;5020450;28;20523;-81
2024/01/12 06:32:41;;;;;;;8.55;4.10;;;-6.80;99.90;;;;;;5033614;28;20235;-83
2024/01/12 06:35:11;;;;;;;13.57;8.03;;;-6.70;99.90;;;;;;5019101;28;20189;-78
2024/01/12 06:37:37;;;;;;;7.50;6.28;;;-6.70;99.90;;;;;;5008991;28;20190;-81
2024/01/12 06:40:04;;;;;;;9.45;7.45;;;-6.70;99.90;;;;;;5015568;28;20244;-81
2024/01/12 06:42:30;;;;;;;21.40;7.60;;;-6.70;99.90;;;;;;5007765;28;20194;-84
2024/01/12 06:44:55;;;;;;;13.07;6.73;;;-6.60;99.90;;;;;;5011030;28;20202;-83
2024/01/12 06:47:21;;;;;;;6.70;6.17;;;-6.70;99.90;;;;;;5013229;28;20187;-82
2024/01/12 06:49:46;;;;;;;8.33;3.37;;;-6.70;99.90;;;;;;5006230;28;20344;-81
2024/01/12 06:52:13;;;;;;;16.40;5.30;;;-6.60;99.90;;;;;;5006992;28;20209;-82
2024/01/12 06:54:44;;;;;;;10.25;7.22;;;-6.60;99.90;;;;;;5004683;28;20200;-80
2024/01/12 06:57:10;;;;;;;7.35;6.43;;;-6.60;99.90;;;;;;4998033;28;20274;-81
2024/01/12 06:59:36;;;;;;;24.25;8.77;;;-6.60;99.90;;;;;;5009191;28;20438;-80
2024/01/12 07:02:02;;;;;;;12.67;5.53;;;-6.60;99.90;;;;;;5012625;28;20683;-83
2024/01/12 07:04:27;;;;;;;16.40;6.33;;;-6.60;99.90;;;;;;5005656;28;20224;-83
2024/01/12 07:06:53;;;;;;;8.17;6.50;;;-6.60;99.90;;;;;;5008581;28;20487;-83
2024/01/12 07:09:19;;;;;;;20.10;7.23;;;-6.70;99.90;;;;;;5004122;28;20206;-84
2024/01/12 07:11:45;;;;;;;12.60;7.22;;;-6.70;99.90;;;;;;5002511;28;20221;-82
2024/01/12 07:14:13;;;;;;;7.80;6.88;;;-6.80;99.90;;;;;;5003830;28;20264;-82
2024/01/12 07:16:38;;;;;;;5.90;5.15;;;-6.80;99.90;;;;;;5015576;28;20229;-81
2024/01/12 07:19:04;;;;;;;14.10;9.70;;;-6.80;99.90;;;;;;5016238;28;20218;-80
2024/01/12 07:21:30;;;;;;;11.43;5.90;;;-6.90;99.90;;;;;;5013521;28;20239;-84
2024/01/12 07:23:55;;;;;;;9.43;7.80;;;-6.90;99.90;;;;;;5004613;28;20467;-81
2024/01/12 07:26:21;;;;;;;18.27;6.43;;;-6.80;99.90;;;;;;5010713;28;20189;-79
2024/01/12 07:28:46;;;;;;;20.63;4.23;;;-6.70;99.90;;;;;;5013939;28;20245;-80
2024/01/12 07:31:12;;;;;;;11.07;5.53;;;-6.70;99.90;;;;;;5017538;28;20301;-82
2024/01/12 07:33:38;;;;;;;14.00;6.97;;;-6.80;99.90;;;;;;5008538;28;20660;-80
2024/01/12 07:36:03;;;;;;;6.37;5.73;;;-6.90;99.90;;;;;;5004125;28;20186;-83
2024/01/12 07:38:29;;;;;;;26.53;7.20;;;-6.90;99.90;;;;;;5007159;28;20204;-83
2024/01/12 07:40:55;;;;;;;6.50;4.83;;;-6.90;99.90;;;;;;5006654;28;20534;-83
2024/01/12 07:43:20;;;;;;;9.53;5.93;;;-6.80;99.90;;;;;;5004466;28;20192;-83
2024/01/12 07:45:46;;;;;;;7.47;6.80;;;-6.60;99.90;;;;;;5013355;28;20247;-83
2024/01/12 07:48:11;;;;;;;4.70;3.13;;;-6.60;99.90;;;;;;5004267;28;20204;-82
2024/01/12 07:50:37;;;;;;;19.33;7.40;;;-6.50;99.90;;;;;;5006385;28;20696;-82
2024/01/12 07:53:03;;;;;;;12.87;7.07;;;-6.40;99.90;;;;;;5010669;28;20178;-84
2024/01/12 07:55:28;;;;;;;9.67;7.50;;;-6.30;99.90;;;;;;5009309;28;20186;-83
2024/01/12 07:57:54;;;;;;;45.47;14.67;;;-6.10;99.90;;;;;;5013069;28;20196;-82
2024/01/12 08:00:20;;;;;;;33.30;11.43;;;-5.90;99.90;;;;;;5011935;28;20821;-80
2024/01/12 08:02:45;;;;;;;15.17;10.90;;;-5.60;99.90;;;;;;5005439;28;20194;-82
2024/01/12 08:05:11;;;;;;;28.97;14.63;;;-5.30;99.90;;;;;;5003139;28;20189;-82
2024/01/12 08:07:37;;;;;;;11.73;10.00;;;-4.80;99.90;;;;;;5004729;28;20190;-80
2024/01/12 08:10:06;;;;;;;23.92;12.68;;;-4.20;99.90;;;;;;5019099;28;20226;-78
2024/01/12 08:12:32;;;;;;;30.48;14.35;;;-3.50;99.90;;;;;;5015716;28;20197;-81
2024/01/12 08:14:57;;;;;;;19.57;9.27;;;-2.90;99.90;;;;;;5012639;28;21272;-80
2024/01/12 08:17:23;;;;;;;20.70;13.07;;;-2.40;99.90;;;;;;5017453;28;20197;-85
2024/01/12 08:19:48;;;;;;;8.80;6.33;;;-1.90;99.90;;;;;;5011010;28;20632;-82
2024/01/12 08:22:15;;;;;;;18.70;9.27;;;-2.10;99.90;;;;;;5020517;28;20185;-81
2024/01/12 08:24:40;;;;;;;21.45;6.25;;;-2.10;99.90;;;;;;5017198;28;20198;-82
2024/01/12 08:27:06;;;;;;;32.77;12.33;;;-2.40;99.90;;;;;;5015443;28;20189;-81
2024/01/12 08:29:31;;;;;;;25.13;10.07;;;-2.90;99.90;;;;;;5011175;28;20222;-83
2024/01/12 08:31:58;;;;;;;14.37;6.87;;;-3.10;99.90;;;;;;5010093;28;22090;-81
2024/01/12 08:34:24;;;;;;;15.35;7.03;;;-3.00;99.90;;;;;;5007164;28;20865;-84
2024/01/12 08:36:50;;;;;;;27.70;10.73;;;-3.10;99.90;;;;;;5008342;28;20276;-82
2024/01/12 08:39:16;;;;;;;11.07;8.90;;;-2.80;99.90;;;;;;4999990;28;20259;-83
2024/01/12 08:41:42;;;;;;;21.42;7.35;;;-2.20;99.90;;;;;;5006107;28;20459;-84
2024/01/12 08:44:08;;;;;;;18.80;9.80;;;-1.40;99.90;;;;;;5013895;28;20561;-81
2024/01/12 08:46:33;;;;;;;11.60;8.97;;;-1.00;99.90;;;;;;5008794;28;20194;-83
2024/01/12 08:49:00;;;;;;;20.87;8.87;;;-1.20;99.90;;;;;;5002586;28;20209;-81
2024/01/12 08:51:26;;;;;;;13.80;7.93;;;-1.40;99.90;;;;;;5000350;28;20474;-81
2024/01/12 08:53:51;;;;;;;29.23;11.63;;;-0.90;99.90;;;;;;5002185;28;20187;-82
2024/01/12 08:56:17;;;;;;;21.60;10.60;;;-0.30;99.90;;;;;;5004879;28;20249;-82
2024/01/12 08:58:43;;;;;;;18.10;7.17;;;-0.20;99.90;;;;;;5005515;28;20268;-84
2024/01/12 09:01:08;;;;;;;25.03;12.13;;;-0.10;99.90;;;;;;5006157;28;20454;-83
2024/01/12 09:03:34;;;;;;;14.17;10.70;;;-0.70;99.90;;;;;;5006353;28;20465;-83
2024/01/12 09:05:59;;;;;;;13.20;7.37;;;-2.10;99.90;;;;;;5010914;28;20237;-79
2024/01/12 09:08:25;;;;;;;42.30;9.50;;;-2.30;99.90;;;;;;4999836;28;20194;-84
2024/01/12 09:10:50;;;;;;;27.20;12.50;;;-2.70;99.90;;;;;;5009241;28;20221;-82
2024/01/12 09:13:16;;;;;;;15.40;6.03;;;-2.40;99.90;;;;;;5004707;28;20286;-78
2024/01/12 09:15:41;;;;;;;9.50;6.23;;;-1.80;99.90;;;;;;5006714;28;20202;-79
2024/01/12 09:18:08;;;;;;;18.07;10.30;;;-1.40;99.90;;;;;;5003167;28;20190;-83
2024/01/12 09:20:33;;;;;;;13.43;7.18;;;-1.30;99.90;;;;;;5008966;28;20213;-82
2024/01/12 09:22:59;;;;;;;15.33;9.73;;;-1.40;99.90;;;;;;5005033;28;20186;-81
2024/01/12 09:25:25;;;;;;;22.77;9.63;;;-1.40;99.90;;;;;;5005100;28;20236;-82
2024/01/12 09:27:52;;;;;;;14.20;5.88;;;-2.00;99.90;;;;;;5002773;28;20190;-76
2024/01/12 09:30:18;;;;;;;17.00;7.20;;;-2.10;99.90;;;;;;5021774;28;20210;-86
2024/01/12 09:32:44;;;;;;;20.00;7.90;;;-2.30;99.90;;;;;;5015096;28;20181;-81
2024/01/12 09:35:09;;;;;;;16.97;6.87;;;-2.30;99.90;;;;;;5016222;28;20201;-81
2024/01/12 09:37:36;;;;;;;16.33;7.40;;;-2.10;99.90;;;;;;5008785;28;20186;-81
2024/01/12 09:40:02;;;;;;;20.48;11.23;;;-1.90;99.90;;;;;;5012715;28;20202;-84
2024/01/12 09:42:32;;;;;;;15.68;7.85;;;-1.50;99.90;;;;;;5008987;28;20181;-82
2024/01/12 09:44:59;;;;;;;14.32;8.43;;;-1.40;99.90;;;;;;5021129;28;20253;-78
2024/01/12 09:47:25;;;;;;;12.95;7.63;;;-1.10;99.90;;;;;;5011715;28;20726;-83
2024/01/12 09:49:52;;;;;;;27.35;11.40;;;-0.80;99.90;;;;;;5007875;28;20209;-81
2024/01/12 09:52:18;;;;;;;18.95;8.07;;;-0.70;99.90;;;;;;5010333;28;20214;-80
2024/01/12 09:54:44;;;;;;;22.77;9.67;;;-1.00;99.90;;;;;;5012917;28;21829;-83
2024/01/12 09:57:12;;;;;;;17.77;9.60;;;-1.10;99.90;;;;;;5015180;28;20523;-82
2024/01/12 09:59:38;;;;;;;23.38;9.20;;;-1.20;99.90;;;;;;5015852;28;20209;-80
2024/01/12 10:02:08;;;;;;;12.55;7.18;;;-1.00;99.90;;;;;;5010178;28;20194;-78
2024/01/12 10:04:35;;;;;;;26.05;9.60;;;-0.90;99.90;;;;;;5004296;28;20192;-84
2024/01/12 10:07:00;;;;;;;17.45;8.90;;;-0.70;99.90;;;;;;5003922;28;20197;-81
2024/01/12 10:09:26;;;;;;;16.13;7.83;;;-0.60;99.90;;;;;;5012971;28;20201;-81
2024/01/12 10:11:56;;;;;;;16.07;9.57;;;-0.50;99.90;;;;;;5016748;28;20585;-79
2024/01/12 10:14:22;;;;;;;24.63;10.18;;;-0.70;99.90;;;;;;5009814;28;20453;-79
2024/01/12 10:16:55;;;;;;;23.92;9.52;;;-0.80;99.90;;;;;;5009185;28;20204;-82
2024/01/12 10:19:21;;;;;;;20.48;9.35;;;-1.10;99.90;;;;;;5009470;28;20205;-82
2024/01/12 10:21:47;;;;;;;24.17;7.95;;;-1.00;99.90;;;;;;5008918;28;20686;-83
2024/01/12 10:24:17;;;;;;;26.80;7.03;;;-0.90;99.90;;;;;;5007318;28;20193;-81
2024/01/12 10:26:43;;;;;;;14.93;6.43;;;-0.90;99.90;;;;;;5013145;28;20439;-82
2024/01/12 10:29:09;;;;;;;26.15;8.60;;;-0.70;99.90;;;;;;5013800;28;20256;-81
2024/01/12 10:31:39;;;;;;;32.40;9.05;;;-0.70;99.90;;;;;;5010393;28;20240;-81
2024/01/12 10:34:08;;;;;;;23.88;12.48;;;-0.60;99.90;;;;;;5003759;28;20220;-81
2024/01/12 10:36:36;;;;;;;20.98;10.68;;;-0.70;99.90;;;;;;5014825;28;20177;-86
2024/01/12 10:39:03;;;;;;;13.10;7.60;;;-0.70;99.90;;;;;;5011714;28;20197;-83
2024/01/12 10:41:29;;;;;;;15.07;6.38;;;-0.70;99.90;;;;;;5010918;28;20239;-83
2024/01/12 10:43:59;;;;;;;13.65;6.05;;;-0.90;99.90;;;;;;5010110;28;20319;-79
2024/01/12 10:46:35;;;;;;;15.98;6.85;;;-0.80;99.90;;;;;;5013628;28;20766;-79
2024/01/12 10:49:17;;;;;;;11.98;6.55;;;-0.80;99.90;;;;;;5009522;28;20683;-80
2024/01/12 10:52:08;;;;;;;8.73;7.28;;;-0.60;99.90;;;;;;5007641;28;20241;-80
2024/01/12 10:54:54;;;;;;;21.25;9.00;;;-0.50;99.90;;;;;;5010678;28;20236;-82
2024/01/12 10:57:21;;;;;;;19.52;8.52;;;-0.40;99.90;;;;;;4997422;28;20196;-81
2024/01/12 10:59:49;;;;;;;24.35;8.68;;;-0.30;99.90;;;;;;5018421;28;20509;-80
2024/01/12 11:02:15;;;;;;;27.30;7.60;;;-0.20;99.90;;;;;;5004735;28;20244;-83
2024/01/12 11:04:45;;;;;;;13.70;6.40;;;-0.20;99.90;;;;;;5013635;28;20193;-82
2024/01/12 11:07:12;;;;;;;9.70;5.63;;;-0.20;99.90;;;;;;5013635;28;20220;-82
2024/01/12 11:09:37;;;;;;;10.23;6.95;;;-0.30;99.90;;;;;;5004621;28;20240;-79
2024/01/12 11:12:21;;;;;;;13.67;6.43;;;-0.40;99.90;;;;;;4991879;28;20218;-81
2024/01/12 11:14:46;;;;;;;14.55;7.40;;;-0.30;99.90;;;;;;5004438;28;20255;-82
2024/01/12 11:17:12;;;;;;;15.03;6.87;;;-0.20;99.90;;;;;;5007934;28;20936;-80
2024/01/12 11:19:38;;;;;;;15.97;7.30;;;-0.10;99.90;;;;;;5019885;28;20267;-81
2024/01/12 11:22:09;;;;;;;23.60;7.30;;;-0.20;99.90;;;;;;5014615;28;20445;-84
2024/01/12 11:24:44;;;;;;;12.93;6.50;;;-0.30;99.90;;;;;;5006815;28;20234;-79
2024/01/12 11:27:12;;;;;;;14.70;7.53;;;-0.40;99.90;;;;;;5019612;28;20200;-78
2024/01/12 11:29:38;;;;;;;5.78;5.05;;;-0.40;99.90;;;;;;5008295;28;20341;-80
2024/01/12 11:32:04;;;;;;;7.45;4.35;;;-0.50;99.90;;;;;;5004314;28;20217;-81
2024/01/12 11:34:34;;;;;;;13.38;5.10;;;-0.70;99.90;;;;;;5008109;28;20178;-82
2024/01/12 11:37:00;;;;;;;14.65;6.20;;;-0.70;99.90;;;;;;5015030;28;20190;-80
2024/01/12 11:39:32;;;;;;;11.35;6.00;;;-0.60;99.90;;;;;;5007393;28;20205;-76
2024/01/12 11:42:00;;;;;;;10.93;4.05;;;-0.80;99.90;;;;;;5016651;28;20231;-78
2024/01/12 11:44:25;;;;;;;3.25;2.15;;;-1.00;99.90;;;;;;5019017;28;21325;-81
2024/01/12 11:46:51;;;;;;;6.53;4.10;;;-1.10;99.90;;;;;;5011565;28;20193;-81
2024/01/12 11:49:17;;;;;;;30.57;4.80;;;-1.30;99.90;;;;;;5003839;28;20302;-78
2024/01/12 11:51:43;;;;;;;7.73;4.90;;;-1.30;99.90;;;;;;5009942;28;20494;-84
2024/01/12 11:54:09;;;;;;;6.60;3.33;;;-1.40;99.90;;;;;;5014321;28;20178;-83
2024/01/12 11:56:35;;;;;;;9.07;5.03;;;-1.30;99.90;;;;;;5006580;28;20202;-81
2024/01/12 11:59:00;;;;;;;13.63;7.30;;;-1.20;99.90;;;;;;5004001;28;20249;-81
2024/01/12 12:01:26;;;;;;;14.60;6.90;;;-1.10;99.90;;;;;;5007310;28;20182;-79
2024/01/12 12:03:52;;;;;;;20.13;7.40;;;-1.00;99.90;;;;;;5039700;28;20452;-81
2024/01/12 12:06:18;;;;;;;9.98;5.43;;;-1.10;99.90;;;;;;5015656;28;20260;-83
2024/01/12 12:08:44;;;;;;;21.33;6.23;;;-1.00;99.90;;;;;;5013902;28;20194;-83
2024/01/12 12:11:12;;;;;;;13.30;5.73;;;-1.00;99.90;;;;;;5013179;28;20716;-81
2024/01/12 12:13:38;;;;;;;9.27;7.95;;;-1.00;99.90;;;;;;5009963;28;21142;-83
2024/01/12 12:16:03;;;;;;;11.03;4.57;;;-0.90;99.90;;;;;;5009770;28;20182;-82
2024/01/12 12:18:30;;;;;;;13.53;7.80;;;-0.70;99.90;;;;;;5010836;28;20171;-80
2024/01/12 12:20:56;;;;;;;13.30;3.88;;;-0.70;99.90;;;;;;5011191;28;20779;-82
2024/01/12 12:23:22;;;;;;;12.77;5.30;;;-0.70;99.90;;;;;;5012399;28;20182;-82
2024/01/12 12:25:49;;;;;;;18.67;6.00;;;-0.70;99.90;;;;;;5011010;28;21154;-81
2024/01/12 12:28:15;;;;;;;13.00;5.95;;;-0.60;99.90;;;;;;5013418;28;20455;-81
2024/01/12 12:30:41;;;;;;;17.20;5.00;;;-0.70;99.90;;;;;;5012996;28;20216;-83
2024/01/12 12:33:08;;;;;;;13.17;7.00;;;-0.60;99.90;;;;;;5012661;28;20178;-83